Terminal Aerodrome Forecast
Issued by NWS Shreveport, LA

Home | Current Version | Previous Version | Text Only | Print | Product List | Glossary On
Versions: 1 2 3 4 5 6 7 8 9 10 11 12 13 14 15 16 17
000
FTUS44 KSHV 011100
TAFGGG
TAF
KGGG 011121Z 0112/0212 18010KT P6SM OVC015
      TEMPO 0112/0115 BKN008
     FM011500 18010G16KT P6SM BKN020
     FM011600 18012G18KT P6SM SCT035
     FM011800 19012G18KT P6SM SCT050
     FM020100 17010KT P6SM FEW060
     FM020800 17010KT P6SM BKN008=

USA.gov is the U.S. government's official web portal to all federal, state and local government web resources and services.